createdAt,value
2019-02-27T00:02:28.407Z,11.80
2019-02-27T00:04:56.629Z,11.17
2019-02-27T00:07:24.848Z,12.37
2019-02-27T00:09:53.099Z,15.77
2019-02-27T00:12:21.322Z,14.60
2019-02-27T00:14:49.538Z,13.73
2019-02-27T00:17:18.078Z,12.83
2019-02-27T00:19:47.515Z,9.67
2019-02-27T00:22:17.690Z,13.43
2019-02-27T00:24:45.681Z,21.93
2019-02-27T00:27:14.807Z,14.23
2019-02-27T00:29:43.532Z,18.20
2019-02-27T00:32:11.800Z,12.10
2019-02-27T00:34:40.017Z,11.30
2019-02-27T00:37:08.234Z,11.63
2019-02-27T00:39:36.449Z,11.97
2019-02-27T00:42:04.673Z,10.43
2019-02-27T00:44:34.735Z,12.70
2019-02-27T00:47:02.856Z,12.20
2019-02-27T00:49:32.335Z,15.23
2019-02-27T00:52:00.986Z,10.90
2019-02-27T00:54:31.351Z,11.37
2019-02-27T00:56:59.127Z,10.73
2019-02-27T00:59:27.332Z,10.87
2019-02-27T01:01:55.550Z,8.67
2019-02-27T01:04:23.850Z,12.20
2019-02-27T01:06:52.134Z,13.80
2019-02-27T01:09:20.359Z,12.00
2019-02-27T01:11:51.526Z,11.97
2019-02-27T01:14:18.666Z,10.37
2019-02-27T01:16:47.682Z,10.13
2019-02-27T01:19:16.811Z,12.60
2019-02-27T01:21:45.026Z,10.50
2019-02-27T01:24:17.159Z,12.33
2019-02-27T01:26:43.154Z,11.50
2019-02-27T01:29:11.362Z,12.63
2019-02-27T01:31:39.574Z,9.50
2019-02-27T01:34:11.146Z,11.93
2019-02-27T01:36:37.710Z,10.73
2019-02-27T01:39:08.987Z,12.70
2019-02-27T01:41:36.627Z,14.40
2019-02-27T01:44:04.910Z,11.97
2019-02-27T01:46:33.126Z,14.20
2019-02-27T01:49:01.339Z,12.50
2019-02-27T01:51:29.554Z,13.03
2019-02-27T01:53:57.771Z,13.03
2019-02-27T01:56:28.888Z,12.07
2019-02-27T01:58:55.935Z,13.77
2019-02-27T02:01:24.148Z,13.27
2019-02-27T02:03:52.367Z,11.60
2019-02-27T02:06:20.582Z,11.63
2019-02-27T02:08:50.358Z,11.80
2019-02-27T02:11:18.561Z,10.73
2019-02-27T02:14:03.495Z,11.63
2019-02-27T02:16:34.314Z,14.40
2019-02-27T02:19:07.331Z,12.50
2019-02-27T02:21:37.079Z,15.87
2019-02-27T02:24:23.331Z,11.53
2019-02-27T02:26:59.111Z,10.23
2019-02-27T02:29:47.190Z,10.83
2019-02-27T02:32:23.158Z,11.40
2019-02-27T02:34:55.579Z,13.53
2019-02-27T02:37:27.985Z,10.70
2019-02-27T02:40:09.640Z,10.10
2019-02-27T02:42:48.307Z,12.63
2019-02-27T02:45:21.035Z,10.23
2019-02-27T02:47:56.848Z,10.93
2019-02-27T02:50:38.955Z,10.07
2019-02-27T02:53:08.723Z,12.80
2019-02-27T02:55:56.456Z,12.70
2019-02-27T02:58:32.196Z,14.07
2019-02-27T03:01:01.955Z,13.93
2019-02-27T03:03:43.713Z,14.00
2019-02-27T03:06:13.763Z,13.10
2019-02-27T03:08:43.531Z,11.07
2019-02-27T03:11:19.028Z,11.70
2019-02-27T03:13:53.154Z,12.40
2019-02-27T03:16:22.911Z,12.03
2019-02-27T03:18:55.343Z,9.93
2019-02-27T03:21:33.932Z,11.13
2019-02-27T03:24:27.950Z,9.83
2019-02-27T03:26:55.761Z,9.63
2019-02-27T03:29:34.268Z,11.00
2019-02-27T03:32:13.081Z,11.20
2019-02-27T03:34:50.375Z,10.13
2019-02-27T03:37:26.431Z,12.77
2019-02-27T03:40:12.611Z,9.20
2019-02-27T03:42:54.112Z,12.40
2019-02-27T03:45:35.920Z,11.60
2019-02-27T03:48:05.673Z,10.57
2019-02-27T03:50:35.435Z,10.47
2019-02-27T03:53:17.372Z,8.63
2019-02-27T03:55:49.773Z,10.23
2019-02-27T03:58:30.032Z,11.60
2019-02-27T04:00:59.892Z,11.27
2019-02-27T04:03:44.892Z,10.50
2019-02-27T04:06:19.636Z,9.37
2019-02-27T04:08:53.036Z,12.70
2019-02-27T04:11:21.268Z,13.80
2019-02-27T04:13:49.475Z,11.83
2019-02-27T04:16:17.706Z,13.73
2019-02-27T04:18:45.927Z,10.53
2019-02-27T04:21:14.414Z,9.20
2019-02-27T04:23:47.751Z,14.67
2019-02-27T04:26:12.566Z,11.67
2019-02-27T04:28:40.780Z,10.23
2019-02-27T04:31:09.000Z,10.17
2019-02-27T04:33:37.231Z,9.97
2019-02-27T04:36:05.458Z,11.00
2019-02-27T04:38:33.672Z,10.67
2019-02-27T04:41:01.895Z,16.07
2019-02-27T04:43:32.294Z,11.23
2019-02-27T04:46:00.039Z,13.97
2019-02-27T04:48:29.923Z,12.13
2019-02-27T04:50:58.174Z,15.37
2019-02-27T04:53:31.613Z,12.90
2019-02-27T04:55:56.623Z,15.47
2019-02-27T04:58:24.839Z,12.40
2019-02-27T05:00:53.074Z,13.03
2019-02-27T05:03:21.281Z,19.93
2019-02-27T05:05:49.511Z,15.27
2019-02-27T05:08:17.726Z,13.33
2019-02-27T05:10:45.951Z,12.03
2019-02-27T05:13:14.159Z,14.13
2019-02-27T05:15:42.377Z,16.57
2019-02-27T05:18:10.578Z,13.57
2019-02-27T05:20:38.817Z,13.07
2019-02-27T05:23:07.046Z,13.90
2019-02-27T05:25:35.267Z,12.87
2019-02-27T05:28:03.487Z,15.97
2019-02-27T05:30:31.711Z,12.70
2019-02-27T05:33:02.240Z,12.87
2019-02-27T05:35:29.903Z,16.87
2019-02-27T05:37:58.124Z,15.00
2019-02-27T05:40:26.665Z,11.80
2019-02-27T05:42:54.934Z,12.20
2019-02-27T05:45:23.151Z,16.33
2019-02-27T05:47:51.386Z,14.17
2019-02-27T05:50:19.595Z,15.87
2019-02-27T05:52:48.798Z,16.00
2019-02-27T05:55:17.915Z,18.03
2019-02-27T05:57:46.137Z,14.00
2019-02-27T06:00:15.604Z,14.53
2019-02-27T06:02:45.011Z,12.23
2019-02-27T06:05:13.916Z,13.60
2019-02-27T06:07:42.142Z,16.30
2019-02-27T06:10:14.097Z,15.50
2019-02-27T06:12:42.466Z,17.37
2019-02-27T06:15:12.148Z,15.87
2019-02-27T06:17:43.410Z,18.43
2019-02-27T06:20:10.296Z,15.43
2019-02-27T06:22:38.620Z,15.90
2019-02-27T06:25:08.522Z,12.57
2019-02-27T06:27:37.158Z,15.93
2019-02-27T06:30:08.541Z,12.07
2019-02-27T06:32:36.774Z,13.73
2019-02-27T06:35:06.352Z,14.40
2019-02-27T06:37:34.567Z,14.50
2019-02-27T06:40:04.795Z,11.40
2019-02-27T06:42:33.080Z,10.13
2019-02-27T06:45:01.291Z,11.63
2019-02-27T06:47:29.831Z,7.73
2019-02-27T06:49:58.050Z,9.23
2019-02-27T06:52:26.275Z,14.17
2019-02-27T06:54:54.491Z,9.33
2019-02-27T06:57:22.711Z,10.30
2019-02-27T06:59:50.926Z,8.47
2019-02-27T07:02:21.549Z,11.50
2019-02-27T07:04:49.051Z,8.20
2019-02-27T07:07:17.277Z,9.27
2019-02-27T07:09:45.834Z,9.27
2019-02-27T07:12:14.786Z,9.27
2019-02-27T07:14:43.007Z,20.83
2019-02-27T07:17:11.235Z,30.70
2019-02-27T07:19:39.787Z,16.30
2019-02-27T07:22:09.217Z,9.83
2019-02-27T07:24:38.003Z,11.60
2019-02-27T07:27:06.240Z,11.57
2019-02-27T07:29:34.447Z,10.87
2019-02-27T07:32:02.675Z,10.00
2019-02-27T07:34:30.902Z,7.70
2019-02-27T07:36:59.129Z,10.60
2019-02-27T07:39:27.351Z,11.67
2019-02-27T07:41:55.562Z,11.27
2019-02-27T07:44:23.791Z,11.63
2019-02-27T07:46:52.011Z,9.30
2019-02-27T07:49:20.227Z,8.47
2019-02-27T07:51:48.591Z,7.00
2019-02-27T07:54:16.943Z,12.20
2019-02-27T07:56:45.150Z,9.53
2019-02-27T07:59:13.651Z,8.60
2019-02-27T08:01:44.074Z,10.47
2019-02-27T08:04:11.790Z,11.50
2019-02-27T08:06:41.460Z,11.03
2019-02-27T08:09:10.141Z,9.40
2019-02-27T08:11:38.354Z,11.37
2019-02-27T08:14:06.582Z,12.33
2019-02-27T08:16:36.932Z,9.77
2019-02-27T08:19:04.707Z,9.70
2019-02-27T08:21:32.916Z,9.30
2019-02-27T08:24:05.525Z,9.83
2019-02-27T08:26:31.540Z,11.70
2019-02-27T08:28:59.754Z,11.40
2019-02-27T08:31:28.836Z,11.30
2019-02-27T08:33:57.207Z,8.97
2019-02-27T08:36:25.463Z,12.97
2019-02-27T08:38:53.682Z,12.87
2019-02-27T08:41:21.900Z,11.30
2019-02-27T08:43:50.127Z,11.37
2019-02-27T08:46:18.350Z,9.23
2019-02-27T08:48:49.950Z,11.87
2019-02-27T08:51:16.472Z,9.13
2019-02-27T08:53:44.695Z,11.17
2019-02-27T08:56:12.970Z,11.67
2019-02-27T08:58:41.319Z,10.80
2019-02-27T09:01:10.091Z,10.57
2019-02-27T09:03:38.367Z,11.97
2019-02-27T09:06:06.581Z,14.00
2019-02-27T09:08:34.807Z,10.20
2019-02-27T09:11:06.587Z,11.57
2019-02-27T09:13:32.929Z,15.27
2019-02-27T09:16:01.145Z,14.20
2019-02-27T09:18:29.375Z,12.60
2019-02-27T09:20:57.595Z,13.90
2019-02-27T09:23:25.831Z,13.37
2019-02-27T09:25:57.235Z,14.07
2019-02-27T09:28:23.966Z,9.83
2019-02-27T09:30:52.223Z,11.93
2019-02-27T09:33:21.027Z,9.53
2019-02-27T09:35:49.246Z,11.47
2019-02-27T09:38:17.467Z,12.23
2019-02-27T09:40:45.691Z,13.33
2019-02-27T09:43:14.287Z,11.43
2019-02-27T09:45:46.294Z,11.40
2019-02-27T09:48:12.443Z,10.43
2019-02-27T09:50:47.656Z,11.80
2019-02-27T09:53:14.115Z,14.70
2019-02-27T09:55:42.411Z,11.77
2019-02-27T09:58:11.606Z,12.70
2019-02-27T10:00:47.448Z,12.27
2019-02-27T10:03:19.841Z,13.53
2019-02-27T10:05:45.575Z,11.57
2019-02-27T10:08:13.796Z,15.33
2019-02-27T10:10:44.725Z,13.67
2019-02-27T10:13:11.955Z,12.10
2019-02-27T10:15:40.163Z,12.50
2019-02-27T10:18:08.390Z,16.77
2019-02-27T10:20:37.326Z,18.15
2019-02-27T10:23:06.323Z,13.58
2019-02-27T10:25:34.555Z,13.70
2019-02-27T10:28:04.358Z,13.98
2019-02-27T10:30:32.706Z,14.20
2019-02-27T10:33:03.174Z,11.55
2019-02-27T10:35:30.956Z,15.43
2019-02-27T10:37:59.175Z,12.28
2019-02-27T10:40:27.476Z,14.60
2019-02-27T10:42:55.707Z,16.05
2019-02-27T10:45:23.934Z,12.58
2019-02-27T10:47:52.141Z,15.75
2019-02-27T10:50:20.380Z,14.43
2019-02-27T10:52:50.083Z,14.38
2019-02-27T10:55:19.092Z,16.50
2019-02-27T10:57:47.308Z,13.35
2019-02-27T11:00:25.170Z,15.00
2019-02-27T11:02:52.783Z,15.23
2019-02-27T11:05:21.014Z,13.03
2019-02-27T11:07:50.095Z,13.05
2019-02-27T11:10:19.242Z,14.28
2019-02-27T11:12:47.517Z,10.48
2019-02-27T11:15:17.534Z,11.48
2019-02-27T11:17:45.750Z,10.65
2019-02-27T11:20:14.247Z,10.93
2019-02-27T11:22:42.459Z,8.88
2019-02-27T11:25:11.839Z,11.22
2019-02-27T11:27:40.137Z,11.78
2019-02-27T11:30:18.131Z,10.55
2019-02-27T11:32:46.344Z,9.83
2019-02-27T11:35:14.553Z,9.78
2019-02-27T11:37:44.355Z,9.68
2019-02-27T11:40:14.223Z,8.45
2019-02-27T11:42:42.449Z,9.53
2019-02-27T11:45:12.035Z,8.38
2019-02-27T11:47:45.097Z,7.67
2019-02-27T11:50:11.712Z,8.38
2019-02-27T11:52:48.286Z,9.33
2019-02-27T11:55:11.339Z,8.88
2019-02-27T11:57:39.578Z,8.08
2019-02-27T12:00:09.699Z,5.80
2019-02-27T12:02:38.035Z,5.90
2019-02-27T12:05:08.189Z,6.28
2019-02-27T12:07:36.405Z,6.20
2019-02-27T12:10:06.582Z,6.60
2019-02-27T12:12:36.318Z,5.05
2019-02-27T12:15:06.743Z,4.92
2019-02-27T12:17:36.362Z,8.63
2019-02-27T12:20:05.547Z,6.60
2019-02-27T12:22:35.256Z,5.40
2019-02-27T12:25:04.251Z,6.85
2019-02-27T12:27:48.530Z,7.92
2019-02-27T12:30:03.097Z,4.08
2019-02-27T12:32:32.190Z,6.97
2019-02-27T12:35:00.402Z,7.92
2019-02-27T12:37:33.751Z,5.58
2019-02-27T12:39:58.548Z,4.37
2019-02-27T12:42:36.770Z,5.75
2019-02-27T12:44:56.684Z,4.35
2019-02-27T12:47:24.912Z,7.92
2019-02-27T12:49:54.170Z,6.47
2019-02-27T12:52:23.115Z,3.92
2019-02-27T12:54:51.337Z,4.28
2019-02-27T12:57:19.563Z,3.50
2019-02-27T12:59:47.770Z,3.40
2019-02-27T13:02:15.990Z,4.20
2019-02-27T13:04:44.206Z,4.45
2019-02-27T13:07:12.430Z,3.72
2019-02-27T13:09:40.651Z,4.62
2019-02-27T13:12:08.867Z,4.62
2019-02-27T13:14:37.075Z,6.92
2019-02-27T13:17:05.301Z,4.95
2019-02-27T13:19:33.515Z,5.55
2019-02-27T13:22:01.726Z,4.55
2019-02-27T13:24:29.951Z,5.70
2019-02-27T13:26:58.172Z,5.37
2019-02-27T13:29:26.392Z,7.22
2019-02-27T13:31:56.499Z,8.55
2019-02-27T13:34:24.536Z,5.67
2019-02-27T13:36:52.747Z,6.60
2019-02-27T13:39:25.379Z,4.53
2019-02-27T13:41:50.866Z,4.70
2019-02-27T13:44:19.106Z,5.35
2019-02-27T13:46:47.314Z,5.22
2019-02-27T13:49:15.536Z,6.90
2019-02-27T13:51:43.744Z,4.47
2019-02-27T13:54:11.979Z,6.60
2019-02-27T13:56:40.185Z,5.23
2019-02-27T13:59:10.923Z,5.33
2019-02-27T14:01:38.509Z,5.13
2019-02-27T14:04:06.731Z,6.40
2019-02-27T14:06:34.957Z,4.30
2019-02-27T14:09:04.386Z,5.50
2019-02-27T14:11:33.622Z,4.33
2019-02-27T14:14:01.860Z,6.47
2019-02-27T14:16:34.566Z,5.03
2019-02-27T14:18:59.987Z,3.70
2019-02-27T14:21:28.202Z,7.17
2019-02-27T14:23:56.438Z,4.87
2019-02-27T14:26:24.652Z,5.33
2019-02-27T14:28:55.150Z,4.87
2019-02-27T14:31:22.787Z,4.90
2019-02-27T14:33:51.245Z,6.43
2019-02-27T14:36:20.917Z,5.33
2019-02-27T14:38:49.225Z,3.70
2019-02-27T14:41:17.452Z,7.27
2019-02-27T14:43:45.667Z,4.13
2019-02-27T14:46:13.882Z,4.23
2019-02-27T14:48:42.116Z,5.13
2019-02-27T14:51:11.222Z,5.03
2019-02-27T14:53:39.542Z,3.97
2019-02-27T14:56:10.023Z,3.97
2019-02-27T14:58:38.567Z,4.90
2019-02-27T15:01:07.240Z,4.13
2019-02-27T15:03:35.463Z,3.00
2019-02-27T15:06:03.828Z,3.80
2019-02-27T15:08:32.052Z,3.73
2019-02-27T15:11:00.267Z,8.20
2019-02-27T15:13:28.975Z,4.17
2019-02-27T15:15:57.292Z,4.30
2019-02-27T15:18:25.807Z,3.53
2019-02-27T15:20:54.091Z,3.80
2019-02-27T15:23:24.475Z,4.33
2019-02-27T15:25:52.219Z,4.20
2019-02-27T15:28:20.429Z,3.33
2019-02-27T15:30:48.665Z,6.27
2019-02-27T15:33:16.876Z,3.50
2019-02-27T15:35:45.098Z,2.70
2019-02-27T15:38:13.639Z,3.27
2019-02-27T15:40:41.866Z,4.63
2019-02-27T15:43:11.475Z,3.40
2019-02-27T15:45:47.519Z,6.43
2019-02-27T15:48:10.335Z,4.67
2019-02-27T15:50:38.551Z,5.30
2019-02-27T15:53:06.765Z,5.40
2019-02-27T15:55:35.428Z,3.43
2019-02-27T15:58:04.579Z,3.57
2019-02-27T16:00:32.799Z,4.47
2019-02-27T16:03:01.054Z,4.43
2019-02-27T16:05:31.273Z,5.80
2019-02-27T16:07:59.465Z,3.77
2019-02-27T16:10:28.167Z,4.67
2019-02-27T16:12:59.827Z,10.23
2019-02-27T16:15:26.482Z,5.07
2019-02-27T16:17:54.694Z,8.87
2019-02-27T16:20:23.690Z,6.53
2019-02-27T16:22:52.447Z,6.67
2019-02-27T16:25:21.531Z,5.50
2019-02-27T16:27:49.749Z,5.10
2019-02-27T16:30:22.387Z,6.07
2019-02-27T16:32:50.600Z,5.97
2019-02-27T16:35:18.824Z,9.07
2019-02-27T16:37:47.096Z,8.37
2019-02-27T16:40:18.039Z,6.77
2019-02-27T16:42:46.192Z,5.27
2019-02-27T16:45:15.578Z,6.93
2019-02-27T16:47:43.786Z,6.30
2019-02-27T16:50:23.912Z,11.70
2019-02-27T16:52:48.951Z,6.60
2019-02-27T16:55:18.338Z,5.73
2019-02-27T16:57:46.553Z,11.17
2019-02-27T17:00:21.357Z,9.13
2019-02-27T17:02:49.174Z,9.83
2019-02-27T17:05:17.408Z,9.73
2019-02-27T17:07:45.619Z,5.60
2019-02-27T17:10:17.861Z,6.07
2019-02-27T17:12:45.188Z,21.83
2019-02-27T17:15:13.482Z,15.83
2019-02-27T17:17:41.696Z,12.33
2019-02-27T17:20:12.757Z,11.87
2019-02-27T17:22:41.120Z,9.53
2019-02-27T17:25:10.986Z,12.97
2019-02-27T17:27:39.200Z,12.67
2019-02-27T17:30:11.638Z,19.80
2019-02-27T17:32:39.853Z,11.70
2019-02-27T17:35:08.243Z,12.50
2019-02-27T17:37:37.377Z,11.70
2019-02-27T17:40:10.759Z,19.17
2019-02-27T17:42:38.970Z,16.20
2019-02-27T17:45:10.039Z,15.63
2019-02-27T17:47:38.976Z,14.33
2019-02-27T17:50:08.875Z,12.93
2019-02-27T17:52:37.082Z,17.97
2019-02-27T17:55:07.491Z,16.50
2019-02-27T17:57:35.762Z,14.90
2019-02-27T18:00:05.852Z,15.57
2019-02-27T18:02:34.093Z,16.83
2019-02-27T18:05:02.302Z,12.60
2019-02-27T18:07:34.332Z,16.27
2019-02-27T18:10:01.170Z,23.73
2019-02-27T18:12:30.574Z,23.53
2019-02-27T18:14:58.791Z,18.30
2019-02-27T18:17:27.015Z,15.80
2019-02-27T18:19:55.227Z,11.60
2019-02-27T18:22:23.442Z,14.83
2019-02-27T18:24:51.666Z,14.47
2019-02-27T18:27:24.666Z,20.10
2019-02-27T18:29:50.051Z,13.30
2019-02-27T18:32:18.282Z,17.73
2019-02-27T18:34:46.507Z,16.33
2019-02-27T18:37:14.802Z,16.20
2019-02-27T18:39:43.014Z,18.60
2019-02-27T18:42:11.248Z,16.57
2019-02-27T18:44:41.492Z,18.93
2019-02-27T18:47:09.378Z,26.70
2019-02-27T18:49:37.588Z,20.83
2019-02-27T18:52:06.749Z,16.63
2019-02-27T18:54:35.912Z,15.90
2019-02-27T18:57:04.130Z,13.67
2019-02-27T18:59:32.343Z,16.27
2019-02-27T19:02:00.563Z,11.40
2019-02-27T19:04:28.776Z,11.33
2019-02-27T19:06:57.011Z,12.33
2019-02-27T19:09:25.558Z,11.87
2019-02-27T19:11:53.778Z,9.27
2019-02-27T19:14:21.986Z,13.20
2019-02-27T19:16:52.106Z,12.53
2019-02-27T19:19:20.179Z,17.93
2019-02-27T19:21:48.394Z,14.80
2019-02-27T19:24:16.607Z,14.57
2019-02-27T19:26:45.064Z,9.90
2019-02-27T19:29:13.593Z,10.30
2019-02-27T19:31:41.826Z,12.13
2019-02-27T19:34:10.434Z,15.47
2019-02-27T19:36:39.199Z,10.20
2019-02-27T19:39:07.491Z,13.13
2019-02-27T19:41:39.641Z,12.77
2019-02-27T19:44:05.653Z,13.90
2019-02-27T19:46:33.867Z,10.53
2019-02-27T19:49:03.542Z,14.43
2019-02-27T19:51:32.462Z,14.97
2019-02-27T19:54:00.703Z,12.47
2019-02-27T19:56:28.915Z,7.67
2019-02-27T19:58:57.161Z,19.37
2019-02-27T20:01:25.373Z,21.00
2019-02-27T20:03:53.609Z,9.43
2019-02-27T20:06:24.575Z,12.50
2019-02-27T20:08:51.744Z,16.93
2019-02-27T20:11:19.962Z,17.03
2019-02-27T20:13:48.192Z,16.20
2019-02-27T20:16:17.757Z,12.00
2019-02-27T20:18:54.547Z,13.30
2019-02-27T20:21:16.342Z,13.53
2019-02-27T20:23:44.634Z,17.70
2019-02-27T20:26:14.288Z,14.47
2019-02-27T20:28:42.651Z,9.80
2019-02-27T20:31:10.863Z,8.97
2019-02-27T20:33:39.366Z,10.50
2019-02-27T20:36:07.595Z,11.77
2019-02-27T20:38:36.456Z,12.33
2019-02-27T20:41:05.872Z,12.63
2019-02-27T20:43:34.661Z,8.90
2019-02-27T20:46:02.880Z,7.77
2019-02-27T20:48:32.349Z,11.70
2019-02-27T20:51:05.681Z,13.90
2019-02-27T20:53:32.529Z,9.67
2019-02-27T20:56:03.103Z,15.67
2019-02-27T20:58:30.668Z,12.40
2019-02-27T21:00:58.892Z,12.33
2019-02-27T21:03:27.996Z,13.50
2019-02-27T21:05:56.319Z,27.43
2019-02-27T21:08:24.946Z,22.63
2019-02-27T21:10:55.229Z,25.87
2019-02-27T21:13:23.094Z,26.80
2019-02-27T21:15:51.391Z,32.37
2019-02-27T21:18:19.615Z,38.70
2019-02-27T21:20:47.839Z,38.90
2019-02-27T21:23:16.146Z,41.57
2019-02-27T21:25:48.732Z,26.17
2019-02-27T21:28:20.651Z,37.43
2019-02-27T21:30:44.209Z,28.57
2019-02-27T21:33:12.729Z,32.67
2019-02-27T21:35:40.939Z,18.20
2019-02-27T21:38:09.347Z,14.23
2019-02-27T21:40:37.563Z,16.03
2019-02-27T21:43:05.768Z,11.53
2019-02-27T21:45:37.107Z,14.13
2019-02-27T21:48:03.975Z,12.00
2019-02-27T21:50:32.215Z,11.77
2019-02-27T21:53:00.435Z,10.57
2019-02-27T21:55:28.676Z,13.10
2019-02-27T21:57:58.014Z,12.07
2019-02-27T22:00:28.726Z,13.73
2019-02-27T22:02:57.657Z,13.33
2019-02-27T22:05:26.010Z,16.13
2019-02-27T22:07:54.206Z,8.80
2019-02-27T22:10:22.436Z,6.53
2019-02-27T22:12:50.654Z,7.77
2019-02-27T22:15:22.926Z,8.37
2019-02-27T22:17:50.331Z,12.80
2019-02-27T22:20:18.558Z,10.93
2019-02-27T22:22:46.832Z,15.83
2019-02-27T22:25:15.061Z,14.27
2019-02-27T22:27:45.919Z,11.07
2019-02-27T22:30:14.376Z,12.10
2019-02-27T22:32:47.749Z,10.90
2019-02-27T22:35:12.676Z,12.30
2019-02-27T22:37:41.053Z,12.03
2019-02-27T22:40:10.814Z,14.40
2019-02-27T22:42:39.103Z,10.20
2019-02-27T22:45:08.694Z,8.03
2019-02-27T22:47:36.899Z,10.57
2019-02-27T22:50:07.008Z,10.83
2019-02-27T22:52:35.387Z,9.33
2019-02-27T22:55:04.191Z,11.80
2019-02-27T22:57:32.414Z,15.73
2019-02-27T23:00:00.626Z,10.57
2019-02-27T23:02:29.315Z,10.07
2019-02-27T23:04:57.535Z,8.50
2019-02-27T23:07:25.742Z,9.33
2019-02-27T23:09:54.032Z,7.83
2019-02-27T23:12:22.933Z,6.33
2019-02-27T23:14:52.975Z,9.20
2019-02-27T23:17:21.064Z,8.33
2019-02-27T23:19:49.283Z,6.07
2019-02-27T23:22:17.499Z,9.80
2019-02-27T23:24:45.718Z,12.50
2019-02-27T23:27:13.922Z,15.03
2019-02-27T23:29:42.163Z,10.23
2019-02-27T23:32:10.358Z,8.67
2019-02-27T23:34:41.839Z,7.10
2019-02-27T23:37:08.503Z,11.43
2019-02-27T23:39:39.695Z,8.27
2019-02-27T23:42:06.635Z,8.10
2019-02-27T23:44:38.463Z,8.27
2019-02-27T23:47:04.835Z,8.33
2019-02-27T23:49:33.038Z,7.40
2019-02-27T23:52:01.253Z,9.30
2019-02-27T23:54:32.284Z,8.00
2019-02-27T23:57:19.815Z,10.40
2019-02-27T23:59:48.031Z,8.30
